createdAt,value
2019-03-12T00:00:28.228Z,3.30
2019-03-12T00:02:56.650Z,3.30
2019-03-12T00:05:25.158Z,3.30
2019-03-12T00:07:53.790Z,3.30
2019-03-12T00:10:22.183Z,3.30
2019-03-12T00:12:50.572Z,3.30
2019-03-12T00:15:18.979Z,3.30
2019-03-12T00:17:47.380Z,3.20
2019-03-12T00:20:15.819Z,3.20
2019-03-12T00:22:44.213Z,3.10
2019-03-12T00:25:12.664Z,3.10
2019-03-12T00:27:41.054Z,3.10
2019-03-12T00:30:10.386Z,3.10
2019-03-12T00:32:38.800Z,3.10
2019-03-12T00:35:08.123Z,3.10
2019-03-12T00:37:36.546Z,3.10
2019-03-12T00:40:06.879Z,3.10
2019-03-12T00:42:35.266Z,3.10
2019-03-12T00:45:05.131Z,3.20
2019-03-12T00:47:33.602Z,3.20
2019-03-12T00:50:01.991Z,3.20
2019-03-12T00:52:30.446Z,3.20
2019-03-12T00:54:58.852Z,3.20
2019-03-12T00:57:27.255Z,3.10
2019-03-12T00:59:56.562Z,3.10
2019-03-12T01:02:25.175Z,3.10
2019-03-12T01:04:53.611Z,3.00
2019-03-12T01:07:22.001Z,2.90
2019-03-12T01:09:50.391Z,2.90
2019-03-12T01:12:18.876Z,2.80
2019-03-12T01:14:47.302Z,2.70
2019-03-12T01:17:15.704Z,2.60
2019-03-12T01:19:44.117Z,2.50
2019-03-12T01:22:12.523Z,2.50
2019-03-12T01:24:40.906Z,2.40
2019-03-12T01:27:09.310Z,2.40
2019-03-12T01:29:37.702Z,2.40
2019-03-12T01:32:06.109Z,2.40
2019-03-12T01:34:34.507Z,2.50
2019-03-12T01:37:02.982Z,2.50
2019-03-12T01:39:31.393Z,2.60
2019-03-12T01:41:59.778Z,2.70
2019-03-12T01:44:28.189Z,2.80
2019-03-12T01:46:56.587Z,2.90
2019-03-12T01:49:24.982Z,3.00
2019-03-12T01:51:53.394Z,3.10
2019-03-12T01:54:21.851Z,3.20
2019-03-12T01:56:50.238Z,3.20
2019-03-12T01:59:18.667Z,3.30
2019-03-12T02:01:47.054Z,3.30
2019-03-12T02:04:15.448Z,3.40
2019-03-12T02:06:43.846Z,3.40
2019-03-12T02:09:12.409Z,3.40
2019-03-12T02:11:41.015Z,3.50
2019-03-12T02:14:23.415Z,3.50
2019-03-12T02:16:51.840Z,3.60
2019-03-12T02:19:20.203Z,3.60
2019-03-12T02:21:48.611Z,3.60
2019-03-12T02:24:17.001Z,3.60
2019-03-12T02:26:45.423Z,3.70
2019-03-12T02:29:13.878Z,3.70
2019-03-12T02:31:42.291Z,3.70
2019-03-12T02:34:10.684Z,3.70
2019-03-12T02:36:39.093Z,3.60
2019-03-12T02:39:08.636Z,3.60
2019-03-12T02:41:37.060Z,3.50
2019-03-12T02:44:05.586Z,3.40
2019-03-12T02:46:33.994Z,3.30
2019-03-12T02:49:02.402Z,3.20
2019-03-12T02:51:31.117Z,3.10
2019-03-12T02:53:59.550Z,3.00
2019-03-12T02:56:27.954Z,2.90
2019-03-12T02:58:56.637Z,2.80
2019-03-12T03:01:25.018Z,2.80
2019-03-12T03:03:53.409Z,2.70
2019-03-12T03:06:23.448Z,2.80
2019-03-12T03:08:51.855Z,2.80
2019-03-12T03:11:20.243Z,2.90
2019-03-12T03:13:48.640Z,3.00
2019-03-12T03:16:36.384Z,3.20
2019-03-12T03:19:04.802Z,3.30
2019-03-12T03:21:33.211Z,3.40
2019-03-12T03:24:01.688Z,3.40
2019-03-12T03:26:30.082Z,3.50
2019-03-12T03:28:58.541Z,3.50
2019-03-12T03:31:26.927Z,3.40
2019-03-12T03:33:55.320Z,3.40
2019-03-12T03:36:23.782Z,3.30
2019-03-12T03:38:52.170Z,3.10
2019-03-12T03:41:20.555Z,3.00
2019-03-12T03:43:48.980Z,2.80
2019-03-12T03:46:17.380Z,2.70
2019-03-12T03:48:45.778Z,2.60
2019-03-12T03:51:14.193Z,2.50
2019-03-12T03:53:42.580Z,2.30
2019-03-12T03:56:10.975Z,2.20
2019-03-12T03:58:39.646Z,2.10
2019-03-12T04:01:08.053Z,2.00
2019-03-12T04:03:36.546Z,1.90
2019-03-12T04:06:05.119Z,1.80
2019-03-12T04:08:33.530Z,1.70
2019-03-12T04:11:01.922Z,1.50
2019-03-12T04:13:30.306Z,1.40
2019-03-12T04:15:59.038Z,1.20
2019-03-12T04:18:27.531Z,1.00
2019-03-12T04:20:55.931Z,0.80
2019-03-12T04:23:24.338Z,0.70
2019-03-12T04:25:52.727Z,0.60
2019-03-12T04:28:21.115Z,0.50
2019-03-12T04:30:49.527Z,0.30
2019-03-12T04:33:40.723Z,0.20
2019-03-12T04:36:09.131Z,0.10
2019-03-12T04:38:37.610Z,0.00
2019-03-12T04:41:06.013Z,-0.10
2019-03-12T04:43:34.410Z,-0.20
2019-03-12T04:46:02.822Z,-0.30
2019-03-12T04:48:31.235Z,-0.30
2019-03-12T04:50:59.650Z,-0.40
2019-03-12T04:53:28.043Z,-0.40
2019-03-12T04:55:56.450Z,-0.40
2019-03-12T04:58:24.847Z,-0.40
2019-03-12T05:00:53.322Z,-0.40
2019-03-12T05:03:21.718Z,-0.40
2019-03-12T05:05:50.119Z,-0.30
2019-03-12T05:08:18.547Z,-0.30
2019-03-12T05:10:46.946Z,-0.30
2019-03-12T05:13:15.344Z,-0.30
2019-03-12T05:15:43.758Z,-0.30
2019-03-12T05:18:12.183Z,-0.40
2019-03-12T05:20:40.582Z,-0.40
2019-03-12T05:23:09.221Z,-0.40
2019-03-12T05:25:37.714Z,-0.50
2019-03-12T05:28:06.134Z,-0.50
2019-03-12T05:30:34.563Z,-0.60
2019-03-12T05:33:02.954Z,-0.60
2019-03-12T05:35:31.362Z,-0.60
2019-03-12T05:37:59.754Z,-0.40
2019-03-12T05:40:28.146Z,-0.30
2019-03-12T05:42:56.778Z,-0.20
2019-03-12T05:45:25.174Z,-0.20
2019-03-12T05:47:53.635Z,-0.10
2019-03-12T05:50:22.214Z,-0.10
2019-03-12T05:52:50.686Z,-0.10
2019-03-12T05:55:19.186Z,0.00
2019-03-12T05:57:47.579Z,0.00
2019-03-12T06:00:21.666Z,0.00
2019-03-12T06:02:50.119Z,0.00
2019-03-12T06:05:18.506Z,0.00
2019-03-12T06:07:46.978Z,0.00
2019-03-12T06:10:16.308Z,0.00
2019-03-12T06:12:44.813Z,0.00
2019-03-12T06:15:15.114Z,0.00
2019-03-12T06:17:43.502Z,0.00
2019-03-12T06:20:16.018Z,0.00
2019-03-12T06:22:44.477Z,0.00
2019-03-12T06:25:13.847Z,0.00
2019-03-12T06:27:42.331Z,0.00
2019-03-12T06:30:19.218Z,0.00
2019-03-12T06:33:05.606Z,0.10
2019-03-12T06:35:38.597Z,0.20
2019-03-12T06:38:14.373Z,0.20
2019-03-12T06:40:44.474Z,0.30
2019-03-12T06:43:20.404Z,0.30
2019-03-12T06:46:06.889Z,0.40
2019-03-12T06:51:31.273Z,0.50
2019-03-12T06:54:17.927Z,0.50
2019-03-12T06:56:50.974Z,0.60
2019-03-12T06:59:37.774Z,0.80
2019-03-12T07:02:08.378Z,1.00
2019-03-12T07:04:44.163Z,1.20
2019-03-12T07:07:16.999Z,1.50
2019-03-12T07:09:45.980Z,1.70
2019-03-12T07:12:16.015Z,2.00
2019-03-12T07:14:46.068Z,2.30
2019-03-12T07:17:22.171Z,2.50
2019-03-12T07:20:08.467Z,2.70
2019-03-12T07:22:44.511Z,2.90
2019-03-12T07:25:14.538Z,3.00
2019-03-12T07:27:44.589Z,3.10
2019-03-12T07:30:31.121Z,3.10
2019-03-12T07:33:13.082Z,3.10
2019-03-12T07:35:43.113Z,3.20
2019-03-12T07:38:13.142Z,3.20
2019-03-12T07:40:46.153Z,3.30
2019-03-12T07:43:32.423Z,3.40
2019-03-12T07:46:02.480Z,3.40
2019-03-12T07:48:38.611Z,3.50
2019-03-12T07:51:25.190Z,3.60
2019-03-12T07:53:59.813Z,3.70
2019-03-12T07:56:43.539Z,3.80
2019-03-12T07:59:25.866Z,3.90
2019-03-12T08:02:04.990Z,4.00
2019-03-12T08:04:35.030Z,4.10
2019-03-12T08:07:08.066Z,4.20
2019-03-12T08:09:38.131Z,4.30
2019-03-12T08:12:17.270Z,4.40
2019-03-12T08:14:47.310Z,4.50
2019-03-12T08:17:17.342Z,4.60
2019-03-12T08:19:47.394Z,4.80
2019-03-12T08:22:29.864Z,4.90
2019-03-12T08:25:02.874Z,5.00
2019-03-12T08:27:49.499Z,5.10
2019-03-12T08:30:28.526Z,5.20
2019-03-12T08:33:13.964Z,5.40
2019-03-12T08:35:56.114Z,5.50
2019-03-12T08:38:42.583Z,5.60
2019-03-12T08:41:12.619Z,5.70
2019-03-12T08:43:48.734Z,5.80
2019-03-12T08:46:22.344Z,5.80
2019-03-12T08:48:58.999Z,6.00
2019-03-12T08:51:37.833Z,6.00
2019-03-12T08:54:13.640Z,6.00
2019-03-12T08:56:46.419Z,6.10
2019-03-12T08:59:16.451Z,6.20
2019-03-12T09:01:47.666Z,6.20
2019-03-12T09:04:35.695Z,6.30
2019-03-12T09:07:05.730Z,6.40
2019-03-12T09:09:41.800Z,6.40
2019-03-12T09:12:11.849Z,6.40
2019-03-12T09:14:41.890Z,6.50
2019-03-12T09:17:12.030Z,6.60
2019-03-12T09:19:48.351Z,6.60
2019-03-12T09:22:18.395Z,6.60
2019-03-12T09:24:57.235Z,6.60
2019-03-12T09:27:36.362Z,6.70
2019-03-12T09:30:15.259Z,6.70
2019-03-12T09:32:51.230Z,6.70
2019-03-12T09:35:21.314Z,6.80
2019-03-12T09:37:57.407Z,6.90
2019-03-12T09:40:27.695Z,7.00
2019-03-12T09:43:04.006Z,7.00
2019-03-12T09:45:52.383Z,7.00
2019-03-12T09:48:28.527Z,7.10
2019-03-12T09:51:01.479Z,7.10
2019-03-12T09:53:37.519Z,7.10
2019-03-12T09:56:10.206Z,7.20
2019-03-12T09:58:43.248Z,7.20
2019-03-12T10:01:16.283Z,7.30
2019-03-12T10:03:52.115Z,7.40
2019-03-12T10:06:25.214Z,7.40
2019-03-12T10:09:11.691Z,7.40
2019-03-12T10:11:54.055Z,7.50
2019-03-12T10:14:33.099Z,7.60
2019-03-12T10:17:05.666Z,7.60
2019-03-12T10:19:54.214Z,7.70
2019-03-12T10:22:26.949Z,7.70
2019-03-12T10:24:59.907Z,7.80
2019-03-12T10:27:45.306Z,7.90
2019-03-12T10:30:27.661Z,7.80
2019-03-12T10:33:13.614Z,7.90
2019-03-12T10:35:59.011Z,7.90
2019-03-12T10:39:17.590Z,7.90
2019-03-12T10:41:56.539Z,8.00
2019-03-12T10:44:29.410Z,8.10
2019-03-12T10:47:05.559Z,8.20
2019-03-12T10:49:37.619Z,8.30
2019-03-12T10:52:04.082Z,8.40
2019-03-12T10:54:32.481Z,8.40
2019-03-12T10:57:00.970Z,8.50
2019-03-12T10:59:29.651Z,8.50
2019-03-12T11:01:58.042Z,8.40
2019-03-12T11:04:26.731Z,8.40
2019-03-12T11:06:55.144Z,8.40
2019-03-12T11:09:23.653Z,8.30
2019-03-12T11:11:52.026Z,8.20
2019-03-12T11:14:20.415Z,8.30
2019-03-12T11:16:48.819Z,8.30
2019-03-12T11:19:17.615Z,8.30
2019-03-12T11:21:46.343Z,8.40
2019-03-12T11:24:14.741Z,8.60
2019-03-12T11:26:43.195Z,8.80
2019-03-12T11:29:11.604Z,9.00
2019-03-12T11:31:39.988Z,9.20
2019-03-12T11:34:08.382Z,9.40
2019-03-12T11:36:36.800Z,9.60
2019-03-12T11:39:05.961Z,9.80
2019-03-12T11:41:34.560Z,9.90
2019-03-12T11:44:03.085Z,10.00
2019-03-12T11:46:41.841Z,10.10
2019-03-12T11:49:01.938Z,10.20
2019-03-12T11:51:30.446Z,10.20
2019-03-12T11:53:58.843Z,10.10
2019-03-12T11:56:27.450Z,10.10
2019-03-12T11:58:55.900Z,10.10
2019-03-12T12:01:24.333Z,10.20
2019-03-12T12:03:52.727Z,10.40
2019-03-12T12:06:21.248Z,10.50
2019-03-12T12:08:49.753Z,10.70
2019-03-12T12:11:18.190Z,11.00
2019-03-12T12:13:46.603Z,11.10
2019-03-12T12:16:15.073Z,11.30
2019-03-12T12:18:43.716Z,11.40
2019-03-12T12:21:12.125Z,11.50
2019-03-12T12:23:40.511Z,11.60
2019-03-12T12:26:08.922Z,11.60
2019-03-12T12:28:37.314Z,11.60
2019-03-12T12:31:05.753Z,11.70
2019-03-12T12:33:34.258Z,11.70
2019-03-12T12:36:02.654Z,11.70
2019-03-12T12:38:31.074Z,11.80
2019-03-12T12:40:59.491Z,11.80
2019-03-12T12:43:27.891Z,11.90
2019-03-12T12:45:56.315Z,11.80
2019-03-12T12:48:24.788Z,11.80
2019-03-12T12:51:03.121Z,11.70
2019-03-12T12:53:23.399Z,11.70
2019-03-12T12:55:51.801Z,11.80
2019-03-12T12:58:20.190Z,11.90
2019-03-12T13:00:48.907Z,11.90
2019-03-12T13:03:18.026Z,12.00
2019-03-12T13:05:46.422Z,12.00
2019-03-12T13:08:15.007Z,12.10
2019-03-12T13:10:43.397Z,12.10
2019-03-12T13:13:11.790Z,12.10
2019-03-12T13:15:40.213Z,12.00
2019-03-12T13:18:08.602Z,12.00
2019-03-12T13:20:37.072Z,12.00
2019-03-12T13:23:05.486Z,11.90
2019-03-12T13:25:33.942Z,11.90
2019-03-12T13:28:02.425Z,11.90
2019-03-12T13:30:30.846Z,11.90
2019-03-12T13:32:59.251Z,11.90
2019-03-12T13:35:27.874Z,12.00
2019-03-12T13:37:56.264Z,12.10
2019-03-12T13:40:25.949Z,12.10
2019-03-12T13:42:54.559Z,12.30
2019-03-12T13:45:28.676Z,12.40
2019-03-12T13:47:57.416Z,12.60
2019-03-12T13:50:25.942Z,12.70
2019-03-12T13:52:54.487Z,12.80
2019-03-12T13:55:23.490Z,12.90
2019-03-12T13:57:52.079Z,13.00
2019-03-12T14:00:24.310Z,13.00
2019-03-12T14:02:53.156Z,13.10
2019-03-12T14:05:21.709Z,13.20
2019-03-12T14:07:50.164Z,13.30
2019-03-12T14:10:23.995Z,13.40
2019-03-12T14:12:54.501Z,13.30
2019-03-12T14:15:46.589Z,13.40
2019-03-12T14:18:15.110Z,13.40
2019-03-12T14:20:45.137Z,13.40
2019-03-12T14:23:22.467Z,13.30
2019-03-12T14:25:51.123Z,13.20
2019-03-12T14:28:19.586Z,13.10
2019-03-12T14:30:48.178Z,12.90
2019-03-12T14:33:16.647Z,12.90
2019-03-12T14:35:51.290Z,12.90
2019-03-12T14:38:15.705Z,12.80
2019-03-12T14:40:44.126Z,12.70
2019-03-12T14:45:32.927Z,12.60
2019-03-12T14:48:02.110Z,12.70
2019-03-12T14:50:32.000Z,12.70
2019-03-12T14:53:07.645Z,12.70
2019-03-12T14:55:37.216Z,12.70
2019-03-12T14:58:05.607Z,12.80
2019-03-12T15:00:34.092Z,12.80
2019-03-12T15:03:02.502Z,12.80
2019-03-12T15:05:30.890Z,12.70
2019-03-12T15:07:59.638Z,12.70
2019-03-12T15:10:28.031Z,12.60
2019-03-12T15:12:56.455Z,12.60
2019-03-12T15:15:24.855Z,12.50
2019-03-12T15:17:53.416Z,12.40
2019-03-12T15:20:22.338Z,12.40
2019-03-12T15:22:51.004Z,12.40
2019-03-12T15:25:19.746Z,12.30
2019-03-12T15:27:48.114Z,12.40
2019-03-12T15:30:19.424Z,12.40
2019-03-12T15:32:47.828Z,12.30
2019-03-12T15:35:16.222Z,12.30
2019-03-12T15:37:44.627Z,12.30
2019-03-12T15:40:13.970Z,12.20
2019-03-12T15:42:42.385Z,12.10
2019-03-12T15:45:13.056Z,12.10
2019-03-12T15:47:41.450Z,12.00
2019-03-12T15:50:12.657Z,11.90
2019-03-12T15:52:41.144Z,11.80
2019-03-12T15:55:11.324Z,11.60
2019-03-12T15:57:39.986Z,11.40
2019-03-12T16:00:11.487Z,11.30
2019-03-12T16:02:39.940Z,11.20
2019-03-12T16:05:09.101Z,11.30
2019-03-12T16:07:37.604Z,11.40
2019-03-12T16:10:14.554Z,11.40
2019-03-12T16:12:42.952Z,11.40
2019-03-12T16:15:13.099Z,11.30
2019-03-12T16:17:41.580Z,11.20
2019-03-12T16:20:15.391Z,11.10
2019-03-12T16:22:43.798Z,10.90
2019-03-12T16:25:12.547Z,10.80
2019-03-12T16:27:40.941Z,10.60
2019-03-12T16:30:12.403Z,10.40
2019-03-12T16:32:40.839Z,10.20
2019-03-12T16:35:09.979Z,10.00
2019-03-12T16:37:38.390Z,9.90
2019-03-12T16:40:09.884Z,9.80
2019-03-12T16:42:38.302Z,9.70
2019-03-12T16:45:09.393Z,9.70
2019-03-12T16:47:37.840Z,9.60
2019-03-12T16:50:17.386Z,9.50
2019-03-12T16:52:45.807Z,9.40
2019-03-12T16:55:16.003Z,9.30
2019-03-12T16:57:44.391Z,9.30
2019-03-12T17:00:20.470Z,9.20
2019-03-12T17:02:48.869Z,9.10
2019-03-12T17:05:17.290Z,9.10
2019-03-12T17:07:45.701Z,9.00
2019-03-12T17:10:16.383Z,8.80
2019-03-12T17:12:44.923Z,8.70
2019-03-12T17:15:21.966Z,8.60
2019-03-12T17:17:50.385Z,8.40
2019-03-12T17:20:18.857Z,8.40
2019-03-12T17:22:47.266Z,8.30
2019-03-12T17:25:15.660Z,8.30
2019-03-12T17:27:44.097Z,8.10
2019-03-12T17:30:22.758Z,8.00
2019-03-12T17:32:51.411Z,8.00
2019-03-12T17:35:31.299Z,7.80
2019-03-12T17:37:59.915Z,7.80
2019-03-12T17:40:28.435Z,7.70
2019-03-12T17:42:56.795Z,7.70
2019-03-12T17:45:25.207Z,7.80
2019-03-12T17:47:54.006Z,7.80
2019-03-12T17:50:22.462Z,7.80
2019-03-12T17:52:51.111Z,7.80
2019-03-12T17:55:19.510Z,7.80
2019-03-12T17:57:50.496Z,7.80
2019-03-12T18:00:22.814Z,7.80
2019-03-12T18:02:51.627Z,7.80
2019-03-12T18:05:20.074Z,7.80
2019-03-12T18:07:48.566Z,7.80
2019-03-12T18:10:18.124Z,7.80
2019-03-12T18:12:46.618Z,7.80
2019-03-12T18:15:19.251Z,7.80
2019-03-12T18:17:46.839Z,7.80
2019-03-12T18:20:16.598Z,7.80
2019-03-12T18:22:45.228Z,7.80
2019-03-12T18:25:28.710Z,7.80
2019-03-12T18:27:57.184Z,7.80
2019-03-12T18:32:54.610Z,7.80
2019-03-12T18:35:23.265Z,7.80
2019-03-12T18:37:51.639Z,7.80
2019-03-12T18:40:24.407Z,7.80
2019-03-12T18:42:52.887Z,7.80
2019-03-12T18:45:29.708Z,7.80
2019-03-12T18:47:58.136Z,7.80
2019-03-12T18:50:26.531Z,7.80
2019-03-12T18:52:55.434Z,7.80
2019-03-12T18:55:38.210Z,7.80
2019-03-12T18:58:10.051Z,7.80
2019-03-12T19:00:40.577Z,7.80
2019-03-12T19:03:09.225Z,7.70
2019-03-12T19:05:37.618Z,7.80
2019-03-12T19:08:06.156Z,7.80
2019-03-12T19:10:34.562Z,7.80
2019-03-12T19:13:03.029Z,7.90
2019-03-12T19:15:31.575Z,7.90
2019-03-12T19:18:00.086Z,8.00
2019-03-12T19:20:28.543Z,8.00
2019-03-12T19:22:56.931Z,8.00
2019-03-12T19:25:38.513Z,8.10
2019-03-12T19:28:07.434Z,8.10
2019-03-12T19:30:35.921Z,8.10
2019-03-12T19:33:07.782Z,8.20
2019-03-12T19:35:36.345Z,8.20
2019-03-12T19:38:05.109Z,8.10
2019-03-12T19:40:39.001Z,8.20
2019-03-12T19:43:07.465Z,8.10
2019-03-12T19:45:35.871Z,8.10
2019-03-12T19:48:04.796Z,8.10
2019-03-12T19:50:33.207Z,8.10
2019-03-12T19:53:01.625Z,8.10
2019-03-12T19:55:41.760Z,8.10
2019-03-12T19:58:10.334Z,8.20
2019-03-12T20:00:39.638Z,8.20
2019-03-12T20:03:12.076Z,8.20
2019-03-12T20:05:38.282Z,8.20
2019-03-12T20:08:06.780Z,8.20
2019-03-12T20:10:46.938Z,8.20
2019-03-12T20:13:50.455Z,8.20
2019-03-12T20:16:21.999Z,8.20
2019-03-12T20:19:12.836Z,8.20
2019-03-12T20:22:17.808Z,8.20
2019-03-12T20:25:23.371Z,8.20
2019-03-12T20:28:23.990Z,8.00
2019-03-12T20:31:27.423Z,7.90
2019-03-12T20:34:04.744Z,7.80
2019-03-12T20:36:51.492Z,7.70
2019-03-12T20:39:35.276Z,7.60
2019-03-12T20:42:29.388Z,7.50
2019-03-12T20:45:06.437Z,7.40
2019-03-12T20:47:46.870Z,7.30
2019-03-12T20:50:48.501Z,7.20
2019-03-12T20:53:19.987Z,7.20
2019-03-12T20:56:19.916Z,7.00
2019-03-12T20:59:18.843Z,6.90
2019-03-12T21:01:59.344Z,6.80
2019-03-12T21:05:03.990Z,6.80
2019-03-12T21:07:52.260Z,6.70
2019-03-12T21:10:29.589Z,6.80
2019-03-12T21:13:09.835Z,6.80
2019-03-12T21:15:55.783Z,6.80
2019-03-12T21:18:50.266Z,6.80
2019-03-12T21:21:30.866Z,6.90
2019-03-12T21:24:14.351Z,7.00
2019-03-12T21:27:03.839Z,7.10
2019-03-12T21:29:44.562Z,7.10
2019-03-12T21:32:14.279Z,7.10
2019-03-12T21:34:42.742Z,7.10
2019-03-12T21:37:11.402Z,7.10
2019-03-12T21:39:39.796Z,7.10
2019-03-12T21:42:08.531Z,7.00
2019-03-12T21:44:37.955Z,7.00
2019-03-12T21:47:09.858Z,6.90
2019-03-12T21:49:39.170Z,6.90
2019-03-12T21:52:08.154Z,6.80
2019-03-12T21:54:37.037Z,6.70
2019-03-12T21:57:05.672Z,6.70
2019-03-12T21:59:34.624Z,6.60
2019-03-12T22:02:03.406Z,6.60
2019-03-12T22:04:32.079Z,6.60
2019-03-12T22:07:00.853Z,6.60
2019-03-12T22:09:29.878Z,6.60
2019-03-12T22:11:59.794Z,6.70
2019-03-12T22:14:30.446Z,6.70
2019-03-12T22:17:01.358Z,6.80
2019-03-12T22:19:31.394Z,6.80
2019-03-12T22:22:01.637Z,6.90
2019-03-12T22:24:31.016Z,7.00
2019-03-12T22:26:59.903Z,7.10
2019-03-12T22:29:29.098Z,7.20
2019-03-12T22:31:58.280Z,7.30
2019-03-12T22:34:30.003Z,7.40
2019-03-12T22:36:58.040Z,7.50
2019-03-12T22:39:27.865Z,7.60
2019-03-12T22:41:56.730Z,7.70
2019-03-12T22:44:25.556Z,7.70
2019-03-12T22:46:53.967Z,7.80
2019-03-12T22:49:22.372Z,7.90
2019-03-12T22:51:50.781Z,8.00
2019-03-12T22:54:19.258Z,8.00
2019-03-12T22:56:47.922Z,8.10
2019-03-12T22:59:16.363Z,8.20
2019-03-12T23:01:44.895Z,8.20
2019-03-12T23:04:13.307Z,8.20
2019-03-12T23:06:41.734Z,8.20
2019-03-12T23:09:10.123Z,8.20
2019-03-12T23:11:38.574Z,8.20
2019-03-12T23:14:07.014Z,8.20
2019-03-12T23:16:35.462Z,8.30
2019-03-12T23:19:04.255Z,8.40
2019-03-12T23:21:32.640Z,8.40
2019-03-12T23:24:01.122Z,8.40
2019-03-12T23:26:29.604Z,8.40
2019-03-12T23:28:57.990Z,8.40
2019-03-12T23:31:26.422Z,8.50
2019-03-12T23:33:54.790Z,8.50
2019-03-12T23:36:23.626Z,8.50
2019-03-12T23:38:52.003Z,8.60
2019-03-12T23:41:20.498Z,8.90
2019-03-12T23:43:48.953Z,9.40
2019-03-12T23:46:17.363Z,9.80
2019-03-12T23:48:45.754Z,10.00
2019-03-12T23:51:14.391Z,10.20
2019-03-12T23:53:42.891Z,10.40
2019-03-12T23:56:11.283Z,10.40
2019-03-12T23:58:39.671Z,10.40
